3TA3 weather

Baltzell's Las Brisas Heliport
Bandera, Texas, United States

Public forecast

Using degrees Fahrenheit for public forecast. Weather courtesy of forecast.io.

METAR (pilot weather report)

Closest report is Boerne Stage Field, 15.4 nm (28.6 km) ENE. Retrieved 2019/09/23 16:35 UTC (0 seconds ago):

K5C1 231635Z AUTO 19007KT 10SM SCT026 SCT031 27/21 A3011 RMK AO1

TAF (pilot weather forecast)

Forecast is more than 6 hours old.

Closest forecast is Lackland Air Force Base, 22.7 nm (42.0 km) ESE. Retrieved 2019/09/23 10:03 UTC (6 hours ago):

TAF KSKF 231000Z 2310/2416 15006KT 9999 BKN010 QNH2999INS TEMPO 2310/2314 SCT010 BECMG 2314/2315 19006KT 9999 SCT025 QNH2992INS BECMG 2318/2319 14010KT 9999 FEW050 QNH2987INS BECMG 2408/2409 15006KT 9999 BKN015 QNH2993INS TX36/2321Z TN25/2312Z